Time;durP1;ratioP1;P1;durP2;ratioP2;P2;SDS_P1;SDS_P2;PMS_P1;PMS_P2;Temp;Humidity;BMP_temperature;BMP_pressure;BME280_temperature;BME280_humidity;BME280_pressure;Samples;Min_cycle;Max_cycle;Signal;HPM_P1;HPM_P2
2021/11/16 00:00:56;;;;;;;;;;;;;;;-144.99;86.64;52637.66;5026545;28;19981;-63
2021/11/16 00:03:23;;;;;;;;;;;;;;;-144.99;86.49;52613.19;5026750;28;19998;-61
2021/11/16 00:05:49;;;;;;;;;;;;;;;-144.99;86.25;52607.09;5027501;28;20060;-61
2021/11/16 00:08:17;;;;;;;;;;;;;;;-144.99;87.11;52611.16;5026513;28;20123;-61
2021/11/16 00:10:43;;;;;;;;;;;;;;;-144.99;87.53;52607.09;5026261;28;19977;-62
2021/11/16 00:13:11;;;;;;;;;;;;;;;-144.99;86.15;52623.38;5022449;28;20028;-62
2021/11/16 00:15:38;;;;;;;;;;;;;;;-144.99;85.86;52615.25;5025977;28;19981;-62
2021/11/16 00:18:05;;;;;;;;;;;;;;;-144.99;85.49;52607.09;5025951;28;19978;-61
2021/11/16 00:20:33;;;;;;;;;;;;;;;-144.99;85.93;52641.72;5025518;28;19973;-61
2021/11/16 00:23:00;;;;;;;;;;;;;;;-144.99;85.35;52619.31;5025244;28;20500;-61
2021/11/16 00:25:34;;;;;;;;;;;;;;;-144.99;85.44;52621.34;5026893;28;20462;-61
2021/11/16 00:28:01;;;;;;;;;;;;;;;-144.99;85.78;52635.63;5025812;28;20004;-60
2021/11/16 00:30:27;;;;;;;;;;;;;;;-144.99;85.79;52603.00;5026500;28;19977;-61
2021/11/16 00:32:53;;;;;;;;;;;;;;;-144.99;85.47;52609.13;5025280;28;19993;-61
2021/11/16 00:35:20;;;;;;;;;;;;;;;-144.99;85.24;52603.00;5027016;28;19977;-61
2021/11/16 00:37:46;;;;;;;;;;;;;;;-144.99;85.53;52607.09;5026037;28;20413;-60
2021/11/16 00:40:17;;;;;;;;;;;;;;;-144.99;86.08;52607.09;5026681;28;19974;-63
2021/11/16 00:42:45;;;;;;;;;;;;;;;-144.99;86.53;52625.44;5024147;28;20473;-64
2021/11/16 00:45:13;;;;;;;;;;;;;;;-144.99;86.91;52625.44;5025575;28;19990;-63
2021/11/16 00:47:39;;;;;;;;;;;;;;;-144.99;87.20;52615.25;5025922;28;19977;-64
2021/11/16 00:50:06;;;;;;;;;;;;;;;-144.99;87.25;52619.31;5026590;28;19974;-64
2021/11/16 00:52:33;;;;;;;;;;;;;;;-144.99;86.99;52615.25;5025082;28;20008;-63
2021/11/16 00:54:59;;;;;;;;;;;;;;;-144.99;87.14;52615.25;5024614;28;20369;-63
2021/11/16 00:57:26;;;;;;;;;;;;;;;-144.99;87.05;52615.25;5029224;28;20450;-63
2021/11/16 00:59:53;;;;;;;;;;;;;;;-144.99;88.14;52647.84;5024707;28;19993;-64
2021/11/16 01:02:20;;;;;;;;;;;;;;;-144.99;88.20;52631.53;5026114;28;19978;-63
2021/11/16 01:04:49;;;;;;;;;;;;;;;-144.99;88.13;52639.69;5024287;28;19989;-62
2021/11/16 01:07:17;;;;;;;;;;;;;;;-144.99;88.51;52647.84;5024371;28;20061;-63
2021/11/16 01:09:44;;;;;;;;;;;;;;;-144.99;87.63;52594.84;5026144;28;20023;-64
2021/11/16 01:12:14;;;;;;;;;;;;;;;-144.99;88.11;52611.16;5024096;28;20028;-63
2021/11/16 01:14:41;;;;;;;;;;;;;;;-144.99;87.93;52627.47;5024254;28;20434;-64
2021/11/16 01:17:09;;;;;;;;;;;;;;;-144.99;87.85;52660.09;5025437;28;19973;-64
2021/11/16 01:19:36;;;;;;;;;;;;;;;-144.99;88.37;52656.00;5032995;28;19978;-62
2021/11/16 01:22:02;;;;;;;;;;;;;;;-144.99;88.18;52651.94;5032383;28;19978;-64
2021/11/16 01:24:29;;;;;;;;;;;;;;;-144.99;88.43;52641.72;5031071;28;21898;-64
2021/11/16 01:26:55;;;;;;;;;;;;;;;-144.99;88.62;52645.81;5029658;28;19943;-66
2021/11/16 01:29:24;;;;;;;;;;;;;;;-144.99;88.60;52607.09;5031998;28;19981;-61
2021/11/16 01:31:53;;;;;;;;;;;;;;;-144.99;89.30;52647.84;5030237;28;20004;-60
2021/11/16 01:34:26;;;;;;;;;;;;;;;-144.99;89.04;52615.25;5031323;28;19989;-60
2021/11/16 01:36:52;;;;;;;;;;;;;;;-144.99;89.02;52586.69;5029579;28;20064;-60
2021/11/16 01:39:19;;;;;;;;;;;;;;;-144.99;89.02;52611.16;5029934;28;20078;-60
2021/11/16 01:41:45;;;;;;;;;;;;;;;-144.99;89.09;52651.94;5027591;28;20004;-59
2021/11/16 01:44:11;;;;;;;;;;;;;;;-144.99;89.18;52631.53;5030770;28;20002;-59
2021/11/16 01:46:38;;;;;;;;;;;;;;;-144.99;89.18;52596.88;5028442;28;19997;-60
2021/11/16 01:49:05;;;;;;;;;;;;;;;-144.99;89.78;52574.47;5030873;28;19980;-59
2021/11/16 01:51:33;;;;;;;;;;;;;;;-144.99;89.35;52627.47;5029497;28;20029;-59
2021/11/16 01:54:02;;;;;;;;;;;;;;;-144.99;89.39;52615.25;5029147;28;20035;-60
2021/11/16 01:56:29;;;;;;;;;;;;;;;-144.99;90.11;52631.53;5029411;28;19981;-59
2021/11/16 01:58:58;;;;;;;;;;;;;;;-144.99;90.12;52611.16;5028312;28;19978;-59
2021/11/16 02:01:25;;;;;;;;;;;;;;;-144.99;90.31;52603.00;5029189;28;20354;-59
2021/11/16 02:03:51;;;;;;;;;;;;;;;-144.99;89.43;52627.47;5029828;28;19996;-60
2021/11/16 02:06:19;;;;;;;;;;;;;;;-144.99;89.08;52656.00;5027819;28;19978;-59
2021/11/16 02:08:47;;;;;;;;;;;;;;;-144.99;89.83;52631.53;5031931;28;19988;-60
2021/11/16 02:11:14;;;;;;;;;;;;;;;-144.99;89.08;52607.09;5030239;28;20369;-59
2021/11/16 02:13:40;;;;;;;;;;;;;;;-144.99;88.81;52643.78;5027141;28;19994;-59
2021/11/16 02:16:06;;;;;;;;;;;;;;;-144.99;89.67;52598.94;5034574;28;19973;-59
2021/11/16 02:18:33;;;;;;;;;;;;;;;-144.99;89.78;52627.47;5029456;28;19981;-59
2021/11/16 02:21:00;;;;;;;;;;;;;;;-144.99;90.00;52647.84;5029032;28;19974;-59
2021/11/16 02:23:27;;;;;;;;;;;;;;;-144.99;89.72;52635.63;5029035;28;20371;-59
2021/11/16 02:25:53;;;;;;;;;;;;;;;-144.99;90.28;52598.94;5029240;28;19993;-59
2021/11/16 02:28:20;;;;;;;;;;;;;;;-144.99;89.88;52594.84;5028575;28;19974;-59
2021/11/16 02:30:47;;;;;;;;;;;;;;;-144.99;89.78;52611.16;5026790;28;19985;-61
2021/11/16 02:33:13;;;;;;;;;;;;;;;-144.99;89.24;52639.69;5028939;28;19996;-60
2021/11/16 02:35:40;;;;;;;;;;;;;;;-144.99;89.67;52594.84;5028331;28;19974;-60
2021/11/16 02:38:07;;;;;;;;;;;;;;;-144.99;89.77;52635.63;5029314;28;19996;-60
2021/11/16 02:40:34;;;;;;;;;;;;;;;-144.99;89.60;52619.31;5028687;28;20426;-61
2021/11/16 02:43:00;;;;;;;;;;;;;;;-144.99;89.72;52627.47;5026680;28;20083;-61
2021/11/16 02:45:27;;;;;;;;;;;;;;;-144.99;89.97;52647.84;5027676;28;20506;-60
2021/11/16 02:47:53;;;;;;;;;;;;;;;-144.99;89.89;52623.38;5027990;28;19973;-62
2021/11/16 02:50:20;;;;;;;;;;;;;;;-144.99;90.63;52603.00;5027907;28;20000;-61
2021/11/16 02:52:47;;;;;;;;;;;;;;;-144.99;90.79;52643.78;5026522;28;19999;-59
2021/11/16 02:55:15;;;;;;;;;;;;;;;-144.99;90.62;52603.00;5025474;28;19981;-61
2021/11/16 02:57:42;;;;;;;;;;;;;;;-144.99;91.56;52615.25;5027219;28;19982;-61
2021/11/16 03:00:10;;;;;;;;;;;;;;;-144.99;91.28;52615.25;5028095;28;20003;-62
2021/11/16 03:02:36;;;;;;;;;;;;;;;-144.99;91.78;52600.97;5026456;28;19982;-58
2021/11/16 03:05:03;;;;;;;;;;;;;;;-144.99;91.40;52594.84;5025185;28;19998;-61
2021/11/16 03:07:30;;;;;;;;;;;;;;;-144.99;91.05;52627.47;5027484;28;20234;-60
2021/11/16 03:09:57;;;;;;;;;;;;;;;-144.99;91.83;52603.00;5027805;28;20435;-60
2021/11/16 03:12:26;;;;;;;;;;;;;;;-144.99;92.79;52635.63;5028520;28;20322;-64
2021/11/16 03:14:53;;;;;;;;;;;;;;;-144.99;91.98;52643.78;5026679;28;20084;-61
2021/11/16 03:17:19;;;;;;;;;;;;;;;-144.99;91.72;52662.13;5027924;28;20453;-60
2021/11/16 03:19:46;;;;;;;;;;;;;;;-144.99;91.53;52615.25;5027238;28;19982;-60
2021/11/16 03:22:14;;;;;;;;;;;;;;;-144.99;91.19;52594.84;5027390;28;19988;-59
2021/11/16 03:24:41;;;;;;;;;;;;;;;-144.99;91.02;52619.31;5026250;28;19993;-63
2021/11/16 03:27:10;;;;;;;;;;;;;;;-144.99;91.26;52641.72;5027145;28;20007;-61
2021/11/16 03:29:43;;;;;;;;;;;;;;;-144.99;91.38;52631.53;5029528;28;20032;-63
2021/11/16 03:32:12;;;;;;;;;;;;;;;-144.99;91.61;52635.63;5026195;28;20107;-59
2021/11/16 03:34:41;;;;;;;;;;;;;;;-144.99;91.36;52627.47;5027198;28;20019;-60
2021/11/16 03:37:08;;;;;;;;;;;;;;;-144.99;91.84;52627.47;5025483;28;19980;-60
2021/11/16 03:39:36;;;;;;;;;;;;;;;-144.99;92.14;52598.94;5027464;28;19978;-61
2021/11/16 03:42:02;;;;;;;;;;;;;;;-144.99;92.05;52629.50;5027006;28;19977;-62
2021/11/16 03:44:29;;;;;;;;;;;;;;;-144.99;92.60;52627.47;5025984;28;20004;-61
2021/11/16 03:46:57;;;;;;;;;;;;;;;-144.99;92.54;52619.31;5028490;28;19959;-62
2021/11/16 03:49:23;;;;;;;;;;;;;;;-144.99;92.26;52598.94;5030542;28;20447;-60
2021/11/16 03:51:50;;;;;;;;;;;;;;;-144.99;92.21;52629.50;5029945;28;20103;-62
2021/11/16 03:54:16;;;;;;;;;;;;;;;-144.99;92.37;52594.84;5028096;28;19989;-61
2021/11/16 03:56:43;;;;;;;;;;;;;;;-144.99;92.03;52611.16;5025409;28;19980;-67
2021/11/16 03:59:09;;;;;;;;;;;;;;;-144.99;92.26;52596.88;5025574;28;20419;-65
2021/11/16 04:01:36;;;;;;;;;;;;;;;-144.99;92.42;52664.16;5027323;28;20000;-63
2021/11/16 04:04:04;;;;;;;;;;;;;;;-144.99;92.44;52625.44;5026845;28;20004;-64
2021/11/16 04:06:31;;;;;;;;;;;;;;;-144.99;92.40;52582.63;5026759;28;20007;-65
2021/11/16 04:08:58;;;;;;;;;;;;;;;-144.99;92.16;52631.53;5029633;28;19981;-66
2021/11/16 04:11:25;;;;;;;;;;;;;;;-144.99;91.77;52627.47;5027488;28;19997;-66
2021/11/16 04:13:51;;;;;;;;;;;;;;;-144.99;92.46;52611.16;5025705;28;19997;-66
2021/11/16 04:16:17;;;;;;;;;;;;;;;-144.99;92.34;52625.44;5025905;28;19973;-66
2021/11/16 04:18:45;;;;;;;;;;;;;;;-144.99;92.27;52615.25;5027222;28;19981;-65
2021/11/16 04:21:13;;;;;;;;;;;;;;;-144.99;92.77;52643.78;5027338;28;20032;-65
2021/11/16 04:23:39;;;;;;;;;;;;;;;-144.99;93.02;52607.09;5026856;28;21143;-63
2021/11/16 04:26:07;;;;;;;;;;;;;;;-144.99;92.47;52623.38;5027324;28;20377;-65
2021/11/16 04:28:33;;;;;;;;;;;;;;;-144.99;92.29;52615.25;5029116;28;20081;-63
2021/11/16 04:31:00;;;;;;;;;;;;;;;-144.99;92.87;52631.53;5028081;28;19973;-65
2021/11/16 04:33:26;;;;;;;;;;;;;;;-144.99;93.19;52594.84;5028044;28;20000;-64
2021/11/16 04:35:53;;;;;;;;;;;;;;;-144.99;92.91;52617.28;5027042;28;19977;-65
2021/11/16 04:38:21;;;;;;;;;;;;;;;-144.99;93.62;52635.63;5023742;28;19973;-63
2021/11/16 04:40:49;;;;;;;;;;;;;;;-144.99;92.86;52647.84;5024524;28;19974;-63
2021/11/16 04:43:18;;;;;;;;;;;;;;;-144.99;92.56;52603.00;5027272;28;20628;-61
2021/11/16 04:45:48;;;;;;;;;;;;;;;-144.99;92.27;52641.72;5028982;28;20000;-65
2021/11/16 04:48:26;;;;;;;;;;;;;;;-144.99;91.72;52578.53;5032352;28;19978;-63
2021/11/16 04:51:04;;;;;;;;;;;;;;;-144.99;92.11;52639.69;5029479;28;20031;-62
2021/11/16 05:04:32;;;;;;;;;;;;;;;-144.99;91.96;52590.78;5027214;28;20012;-67
2021/11/16 05:06:58;;;;;;;;;;;;;;;-144.99;92.42;52619.31;5033891;28;19973;-63
2021/11/16 05:09:26;;;;;;;;;;;;;;;-144.99;92.56;52619.31;5028426;28;19987;-64
2021/11/16 05:11:54;;;;;;;;;;;;;;;-144.99;92.21;52631.53;5056089;22;20142;-61
2021/11/16 05:14:21;;;;;;;;;;;;;;;-144.99;92.05;52607.09;5037103;28;20480;-61
2021/11/16 05:16:47;;;;;;;;;;;;;;;-144.99;92.02;52609.13;5046293;28;20008;-62
2021/11/16 05:19:14;;;;;;;;;;;;;;;-144.99;92.21;52578.53;5038492;28;20475;-61
2021/11/16 05:21:40;;;;;;;;;;;;;;;-144.99;92.50;52631.53;5040507;28;19981;-63
2021/11/16 05:24:06;;;;;;;;;;;;;;;-144.99;92.84;52656.00;5040008;28;20069;-63
2021/11/16 05:26:34;;;;;;;;;;;;;;;-144.99;93.17;52635.63;5044766;28;20481;-63
2021/11/16 05:29:00;;;;;;;;;;;;;;;-144.99;94.11;52611.16;5045641;28;20324;-63
2021/11/16 05:31:27;;;;;;;;;;;;;;;-144.99;93.80;52619.31;5036351;28;19978;-63
2021/11/16 05:33:55;;;;;;;;;;;;;;;-144.99;94.74;52605.03;5040618;28;20453;-62
2021/11/16 05:36:22;;;;;;;;;;;;;;;-144.99;94.89;52635.63;5039345;28;20584;-63
2021/11/16 05:38:48;;;;;;;;;;;;;;;-144.99;95.41;52611.16;5041854;28;20326;-63
2021/11/16 05:41:15;;;;;;;;;;;;;;;-144.99;95.80;52582.63;5044285;28;20389;-62
2021/11/16 05:43:44;;;;;;;;;;;;;;;-144.99;95.93;52623.38;5040839;28;19989;-64
2021/11/16 05:46:11;;;;;;;;;;;;;;;-144.99;96.17;52613.19;5042575;28;20005;-63
2021/11/16 05:48:39;;;;;;;;;;;;;;;-144.99;96.35;52656.00;5044311;28;19950;-64
2021/11/16 05:51:06;;;;;;;;;;;;;;;-144.99;95.35;52668.22;5044795;28;20433;-64
2021/11/16 05:53:32;;;;;;;;;;;;;;;-144.99;96.02;52607.09;5039260;28;21426;-64
2021/11/16 05:55:59;;;;;;;;;;;;;;;-144.99;96.10;52633.59;5043795;28;20385;-63
2021/11/16 05:58:25;;;;;;;;;;;;;;;-144.99;96.12;52607.09;5041667;28;19989;-64
2021/11/16 06:00:53;;;;;;;;;;;;;;;-144.99;96.99;52607.09;5042210;28;19988;-68
2021/11/16 06:03:20;;;;;;;;;;;;;;;-144.99;98.32;52627.47;5041506;28;20001;-66
2021/11/16 06:05:47;;;;;;;;;;;;;;;-144.99;98.94;52582.63;5043202;28;19989;-66
2021/11/16 06:08:19;;;;;;;;;;;;;;;-144.99;98.82;52607.09;5044264;28;20087;-66
2021/11/16 06:10:45;;;;;;;;;;;;;;;-144.99;97.58;52615.25;5036894;28;19981;-65
2021/11/16 06:13:12;;;;;;;;;;;;;;;-144.99;96.87;52598.94;5038146;28;20001;-65
2021/11/16 06:15:38;;;;;;;;;;;;;;;-144.99;96.06;52586.69;5039059;28;20000;-65
2021/11/16 06:18:14;;;;;;;;;;;;;;;-144.99;95.42;52607.09;4603362;28;10000869;-69
2021/11/16 06:20:41;;;;;;;;;;;;;;;-144.99;93.84;52582.63;5043478;28;19977;-66
2021/11/16 06:23:10;;;;;;;;;;;;;;;-144.99;92.44;52603.00;5039666;28;19996;-68
2021/11/16 06:25:37;;;;;;;;;;;;;;;-144.99;92.02;52639.69;5039928;28;20000;-66
2021/11/16 06:28:03;;;;;;;;;;;;;;;-144.99;91.76;52615.25;5042697;28;19977;-67
2021/11/16 06:30:30;;;;;;;;;;;;;;;-144.99;92.03;52584.66;5034360;28;19980;-67
2021/11/16 06:32:56;;;;;;;;;;;;;;;-144.99;92.02;52647.84;5036083;28;19989;-67
2021/11/16 06:35:24;;;;;;;;;;;;;;;-144.99;91.81;52576.50;5038837;28;19988;-67
2021/11/16 06:37:52;;;;;;;;;;;;;;;-144.99;91.89;52570.38;5039803;28;20431;-67
2021/11/16 06:40:18;;;;;;;;;;;;;;;-144.99;91.84;52619.31;5035285;28;19981;-68
2021/11/16 06:42:45;;;;;;;;;;;;;;;-144.99;92.00;52647.84;5037639;28;20001;-68
2021/11/16 06:45:11;;;;;;;;;;;;;;;-144.99;91.92;52590.78;5031281;28;20545;-68
2021/11/16 06:47:38;;;;;;;;;;;;;;;-144.99;91.92;52594.84;5036806;28;19999;-68
2021/11/16 06:50:06;;;;;;;;;;;;;;;-144.99;92.02;52598.94;5039846;28;19977;-68
2021/11/16 06:52:36;;;;;;;;;;;;;;;-144.99;91.96;52609.13;5040716;28;20007;-68
2021/11/16 06:55:02;;;;;;;;;;;;;;;-144.99;92.01;52611.16;5041327;28;19977;-68
2021/11/16 06:57:29;;;;;;;;;;;;;;;-144.99;91.82;52617.28;5039306;28;19981;-67
2021/11/16 06:59:55;;;;;;;;;;;;;;;-144.99;91.70;52590.78;5037109;28;19984;-68
2021/11/16 07:02:22;;;;;;;;;;;;;;;-144.99;91.96;52605.03;5033640;28;20028;-68
2021/11/16 07:04:49;;;;;;;;;;;;;;;-144.99;91.93;52627.47;5038017;28;19973;-66
2021/11/16 07:07:15;;;;;;;;;;;;;;;-144.99;91.92;52590.78;5034246;28;20759;-66
2021/11/16 07:09:44;;;;;;;;;;;;;;;-144.99;91.94;52574.47;5040532;28;20065;-66
2021/11/16 07:12:11;;;;;;;;;;;;;;;-144.99;92.05;52578.53;5030647;28;19991;-66
2021/11/16 07:14:38;;;;;;;;;;;;;;;-144.99;91.81;52598.94;5040603;28;19978;-67
2021/11/16 07:17:05;;;;;;;;;;;;;;;-144.99;91.84;52598.94;5039460;28;20068;-67
2021/11/16 07:19:35;;;;;;;;;;;;;;;-144.99;91.74;52594.84;5039176;28;19992;-66
2021/11/16 07:22:05;;;;;;;;;;;;;;;-144.99;91.89;52627.47;5036949;28;20065;-67
2021/11/16 07:24:32;;;;;;;;;;;;;;;-144.99;91.63;52635.63;5037421;28;19982;-67
2021/11/16 07:27:01;;;;;;;;;;;;;;;-144.99;90.84;52635.63;5035817;28;19993;-67
2021/11/16 07:29:33;;;;;;;;;;;;;;;-144.99;91.28;52613.19;5041551;28;19981;-67
2021/11/16 07:32:00;;;;;;;;;;;;;;;-144.99;91.06;52598.94;5037874;28;19981;-67
2021/11/16 07:34:29;;;;;;;;;;;;;;;-144.99;90.67;52621.34;5037720;28;19998;-67
2021/11/16 07:36:56;;;;;;;;;;;;;;;-144.99;90.24;52611.16;5040661;28;19977;-67
2021/11/16 07:39:22;;;;;;;;;;;;;;;-144.99;90.30;52623.38;5036475;28;20012;-67
2021/11/16 07:41:49;;;;;;;;;;;;;;;-144.99;90.00;52627.47;5043135;28;20043;-67
2021/11/16 07:44:17;;;;;;;;;;;;;;;-144.99;89.47;52635.63;5037677;28;20008;-67
2021/11/16 07:46:54;;;;;;;;;;;;;;;-144.99;89.38;52598.94;5037566;28;19993;-67
2021/11/16 07:49:21;;;;;;;;;;;;;;;-144.99;89.47;52649.88;5039549;28;20338;-67
2021/11/16 07:51:47;;;;;;;;;;;;;;;-144.99;89.09;52635.63;5033073;28;19978;-67
2021/11/16 07:54:14;;;;;;;;;;;;;;;-144.99;89.45;52598.94;5036222;28;20000;-67
2021/11/16 07:56:40;;;;;;;;;;;;;;;-144.99;89.16;52578.53;5041248;28;19984;-67
2021/11/16 07:59:09;;;;;;;;;;;;;;;-144.99;88.62;52629.50;5038410;28;19979;-67
2021/11/16 08:01:40;;;;;;;;;;;;;;;-144.99;88.60;52631.53;5035222;28;20220;-67
2021/11/16 08:04:17;;;;;;;;;;;;;;;-144.99;88.53;52607.09;5039431;28;20004;-67
2021/11/16 08:06:52;;;;;;;;;;;;;;;-144.99;88.20;52631.53;5035345;28;20457;-67
2021/11/16 08:09:25;;;;;;;;;;;;;;;-144.99;88.57;52647.84;5033457;28;20399;-67
2021/11/16 08:12:04;;;;;;;;;;;;;;;-144.99;88.44;52598.94;5037866;28;19987;-67
2021/11/16 08:14:30;;;;;;;;;;;;;;;-144.99;88.65;52609.13;5037777;28;20004;-67
2021/11/16 08:16:59;;;;;;;;;;;;;;;-144.99;88.60;52609.13;5037160;28;19969;-67
2021/11/16 08:19:27;;;;;;;;;;;;;;;-144.99;88.32;52639.69;5039187;28;19969;-67
2021/11/16 08:21:56;;;;;;;;;;;;;;;-144.99;88.40;52603.00;5040917;28;19982;-67
2021/11/16 08:24:24;;;;;;;;;;;;;;;-144.99;88.36;52627.47;5034019;28;20044;-67
2021/11/16 08:26:51;;;;;;;;;;;;;;;-144.99;88.90;52607.09;5036318;28;20110;-67
2021/11/16 08:29:23;;;;;;;;;;;;;;;-144.99;89.26;52590.78;5037368;28;19999;-67
2021/11/16 08:31:52;;;;;;;;;;;;;;;-144.99;89.22;52619.31;5038713;28;19978;-67
2021/11/16 08:34:20;;;;;;;;;;;;;;;-144.99;89.21;52631.53;5033312;28;20035;-67
2021/11/16 08:36:48;;;;;;;;;;;;;;;-144.99;89.20;52615.25;5036932;28;19977;-66
2021/11/16 08:39:16;;;;;;;;;;;;;;;-144.99;89.37;52603.00;5039888;28;19984;-67
2021/11/16 08:41:43;;;;;;;;;;;;;;;-144.99;89.14;52637.66;5035362;28;19996;-66
2021/11/16 08:44:14;;;;;;;;;;;;;;;-144.99;90.12;52651.94;5032862;28;19993;-67
2021/11/16 08:46:41;;;;;;;;;;;;;;;-144.99;89.44;52656.00;5032175;28;20526;-66
2021/11/16 08:49:08;;;;;;;;;;;;;;;-144.99;89.15;52615.25;5031747;28;19974;-67
2021/11/16 08:51:45;;;;;;;;;;;;;;;-144.99;88.09;52590.78;5040742;28;20173;-66
2021/11/16 08:54:11;;;;;;;;;;;;;;;-144.99;87.48;52582.63;5040881;28;19996;-66
2021/11/16 08:56:39;;;;;;;;;;;;;;;-144.99;86.87;52619.31;5040506;28;19982;-66
2021/11/16 08:59:13;;;;;;;;;;;;;;;-144.99;87.14;52607.09;5031374;28;19977;-66
2021/11/16 09:01:39;;;;;;;;;;;;;;;-144.99;86.77;52607.09;5039328;28;19978;-67
2021/11/16 09:04:08;;;;;;;;;;;;;;;-144.99;86.44;52594.84;5040628;28;19997;-67
2021/11/16 09:06:38;;;;;;;;;;;;;;;-144.99;85.43;52598.94;5033272;28;20544;-66
2021/11/16 09:09:10;;;;;;;;;;;;;;;-144.99;85.72;52615.25;5039253;28;19950;-66
2021/11/16 09:11:36;;;;;;;;;;;;;;;-144.99;85.51;52607.09;5039707;28;19985;-66
2021/11/16 09:14:10;;;;;;;;;;;;;;;-144.99;85.75;52582.63;5032657;28;19993;-66
2021/11/16 09:16:36;;;;;;;;;;;;;;;-144.99;85.58;52625.44;5037409;28;19981;-66
2021/11/16 09:19:03;;;;;;;;;;;;;;;-144.99;85.79;52643.78;5031208;28;20403;-66
2021/11/16 09:21:36;;;;;;;;;;;;;;;-144.99;86.25;52619.31;5040734;28;19985;-66
2021/11/16 09:24:05;;;;;;;;;;;;;;;-144.99;86.07;52582.63;5038566;28;19989;-66
2021/11/16 09:26:38;;;;;;;;;;;;;;;-144.99;85.89;52598.94;5034498;28;20107;-66
2021/11/16 09:29:06;;;;;;;;;;;;;;;-144.99;86.03;52607.09;5040752;28;20056;-67
2021/11/16 09:31:34;;;;;;;;;;;;;;;-144.99;85.97;52623.38;5039295;28;19981;-66
2021/11/16 09:34:03;;;;;;;;;;;;;;;-144.99;85.35;52635.63;5039676;28;19993;-66
2021/11/16 09:36:32;;;;;;;;;;;;;;;-144.99;85.00;52594.84;5037774;28;20042;-67
2021/11/16 09:39:06;;;;;;;;;;;;;;;-144.99;84.66;52605.03;5033907;28;19977;-67
2021/11/16 09:41:35;;;;;;;;;;;;;;;-144.99;84.63;52607.09;5039198;28;19970;-67
2021/11/16 09:44:05;;;;;;;;;;;;;;;-144.99;84.56;52653.97;5035876;28;20255;-67
2021/11/16 09:46:32;;;;;;;;;;;;;;;-144.99;84.74;52570.38;5043264;28;20054;-67
2021/11/16 09:49:00;;;;;;;;;;;;;;;-144.99;84.93;52584.66;5042076;28;20472;-67
2021/11/16 09:51:26;;;;;;;;;;;;;;;-144.99;84.98;52627.47;5041238;28;20735;-68
2021/11/16 09:54:01;;;;;;;;;;;;;;;-144.99;85.45;52576.50;5042531;28;19993;-69
2021/11/16 09:56:29;;;;;;;;;;;;;;;-144.99;85.67;52621.34;5037217;28;20459;-70
2021/11/16 09:58:57;;;;;;;;;;;;;;;-144.99;85.61;52598.94;5039896;28;19984;-68
2021/11/16 10:01:26;;;;;;;;;;;;;;;-144.99;85.56;52594.84;5035800;28;20412;-69
2021/11/16 10:04:06;;;;;;;;;;;;;;;-144.99;85.46;52611.16;5042012;28;19989;-69
2021/11/16 10:06:32;;;;;;;;;;;;;;;-144.99;85.65;52598.94;5036475;28;19993;-69
2021/11/16 10:08:59;;;;;;;;;;;;;;;-144.99;86.23;52590.78;5038049;28;19984;-69
2021/11/16 10:11:25;;;;;;;;;;;;;;;-144.99;86.04;52566.31;5041698;28;20001;-69
2021/11/16 10:13:51;;;;;;;;;;;;;;;-144.99;85.62;52619.31;5036957;28;19993;-70
2021/11/16 10:16:19;;;;;;;;;;;;;;;-144.99;85.88;52588.75;5036595;28;20088;-69
2021/11/16 10:18:45;;;;;;;;;;;;;;;-144.99;85.67;52639.69;5036241;28;19960;-70
2021/11/16 10:21:14;;;;;;;;;;;;;;;-144.99;85.64;52609.13;5037061;28;20447;-70
2021/11/16 10:23:42;;;;;;;;;;;;;;;-144.99;86.21;52619.31;5037909;28;20043;-69
2021/11/16 10:26:09;;;;;;;;;;;;;;;-144.99;86.07;52594.84;5040061;28;20064;-69
2021/11/16 10:28:37;;;;;;;;;;;;;;;-144.99;86.19;52603.00;5039887;28;20369;-70
2021/11/16 10:31:04;;;;;;;;;;;;;;;-144.99;85.91;52607.09;5035564;28;19992;-69
2021/11/16 10:33:34;;;;;;;;;;;;;;;-144.99;86.51;52615.25;5036840;28;19997;-69
2021/11/16 10:36:02;;;;;;;;;;;;;;;-144.99;86.26;52615.25;5036294;28;19978;-69
2021/11/16 10:38:30;;;;;;;;;;;;;;;-144.99;86.60;52582.63;5037280;28;19985;-69
2021/11/16 10:40:58;;;;;;;;;;;;;;;-144.99;86.44;52660.09;5035653;28;20625;-70
2021/11/16 10:43:32;;;;;;;;;;;;;;;-144.99;86.02;52619.31;5037527;28;20281;-68
2021/11/16 10:45:59;;;;;;;;;;;;;;;-144.99;85.86;52643.78;5030760;28;19977;-69
2021/11/16 10:48:26;;;;;;;;;;;;;;;-144.99;85.91;52639.69;5038427;28;20092;-69
2021/11/16 10:50:53;;;;;;;;;;;;;;;-144.99;86.11;52594.84;5034447;28;20438;-69
2021/11/16 10:53:21;;;;;;;;;;;;;;;-144.99;85.95;52609.13;5035419;28;19997;-70
2021/11/16 10:55:48;;;;;;;;;;;;;;;-144.99;86.03;52584.66;5037472;28;19991;-67
2021/11/16 10:58:15;;;;;;;;;;;;;;;-144.99;85.72;52596.88;5036630;28;20000;-67
2021/11/16 11:00:48;;;;;;;;;;;;;;;-144.99;85.77;52631.53;5035811;28;19982;-67
2021/11/16 11:03:25;;;;;;;;;;;;;;;-144.99;85.88;52594.84;5036321;28;20084;-67
2021/11/16 11:05:56;;;;;;;;;;;;;;;-144.99;85.81;52603.00;5031082;28;19988;-68
2021/11/16 11:08:30;;;;;;;;;;;;;;;-144.99;86.29;52639.69;5038110;28;20007;-69
2021/11/16 11:10:56;;;;;;;;;;;;;;;-144.99;87.65;52598.94;5037507;28;19981;-66
2021/11/16 11:13:23;;;;;;;;;;;;;;;-144.99;87.79;52596.88;5049512;22;20001;-72
2021/11/16 11:15:50;;;;;;;;;;;;;;;-144.99;87.60;52603.00;5046366;28;19974;-71
2021/11/16 11:18:28;;;;;;;;;;;;;;;-144.99;87.58;52629.50;5045335;28;19981;-70
2021/11/16 11:20:57;;;;;;;;;;;;;;;-144.99;87.73;52651.94;5047948;28;19977;-72
2021/11/16 11:23:26;;;;;;;;;;;;;;;-144.99;87.67;52564.28;5043352;28;20007;-73
2021/11/16 11:25:55;;;;;;;;;;;;;;;-144.99;87.62;52615.25;5043859;28;20228;-71
2021/11/16 11:28:35;;;;;;;;;;;;;;;-144.99;87.58;52615.25;5045031;28;19998;-70
2021/11/16 11:31:02;;;;;;;;;;;;;;;-144.99;87.53;52615.25;5046476;28;19976;-70
2021/11/16 11:33:44;;;;;;;;;;;;;;;-144.99;87.91;52611.16;5045782;28;19994;-71
2021/11/16 11:36:21;;;;;;;;;;;;;;;-144.99;88.28;52603.00;5042997;28;19981;-71
2021/11/16 11:38:48;;;;;;;;;;;;;;;-144.99;88.42;52623.38;5043461;28;20467;-70
2021/11/16 11:41:14;;;;;;;;;;;;;;;-144.99;88.97;52645.81;5041820;28;20361;-71
2021/11/16 11:43:41;;;;;;;;;;;;;;;-144.99;89.32;52631.53;5046657;28;20124;-70
2021/11/16 11:46:08;;;;;;;;;;;;;;;-144.99;89.97;52598.94;5046879;28;19988;-71
2021/11/16 11:48:34;;;;;;;;;;;;;;;-144.99;90.60;52598.94;5050198;28;20385;-71
2021/11/16 11:51:02;;;;;;;;;;;;;;;-144.99;90.49;52603.00;5046344;28;20489;-69
2021/11/16 11:53:30;;;;;;;;;;;;;;;-144.99;90.76;52649.88;5045352;28;20016;-70
2021/11/16 11:55:58;;;;;;;;;;;;;;;-144.99;91.12;52611.16;5042888;28;19981;-71
2021/11/16 11:58:26;;;;;;;;;;;;;;;-144.99;90.98;52592.81;5045966;28;19957;-70
2021/11/16 12:00:54;;;;;;;;;;;;;;;-144.99;91.10;52641.72;5045332;28;19980;-72
2021/11/16 12:03:21;;;;;;;;;;;;;;;-144.99;91.30;52633.59;5044382;28;20515;-69
2021/11/16 12:05:47;;;;;;;;;;;;;;;-144.99;91.63;52603.00;5044021;28;19985;-70
2021/11/16 12:08:15;;;;;;;;;;;;;;;-144.99;92.18;52623.38;5044359;28;20475;-70
2021/11/16 12:10:45;;;;;;;;;;;;;;;-144.99;93.03;52598.94;5044850;28;20567;-71
2021/11/16 12:13:11;;;;;;;;;;;;;;;-144.99;92.90;52603.00;5042111;28;19993;-70
2021/11/16 12:15:41;;;;;;;;;;;;;;;-144.99;92.51;52590.78;5044249;28;19985;-71
2021/11/16 12:18:07;;;;;;;;;;;;;;;-144.99;92.82;52598.94;5045300;28;20075;-70
2021/11/16 12:20:35;;;;;;;;;;;;;;;-144.99;92.74;52631.53;5043367;28;19974;-71
2021/11/16 12:23:02;;;;;;;;;;;;;;;-144.99;92.50;52609.13;5044019;28;20399;-71
2021/11/16 12:25:30;;;;;;;;;;;;;;;-144.99;93.26;52615.25;5041823;28;19981;-71
2021/11/16 12:27:57;;;;;;;;;;;;;;;-144.99;93.19;52615.25;5042126;28;19970;-71
2021/11/16 12:30:36;;;;;;;;;;;;;;;-144.99;93.21;52586.69;5043625;28;19977;-69
2021/11/16 12:33:03;;;;;;;;;;;;;;;-144.99;93.68;52619.31;5040120;28;19997;-70
2021/11/16 12:35:29;;;;;;;;;;;;;;;-144.99;93.54;52627.47;5043078;28;19984;-71
2021/11/16 12:37:56;;;;;;;;;;;;;;;-144.99;93.46;52611.16;5041497;28;19991;-71
2021/11/16 12:40:25;;;;;;;;;;;;;;;-144.99;93.62;52590.78;5039546;28;19981;-70